Time;durP1;ratioP1;P1;durP2;ratioP2;P2;SDS_P1;SDS_P2;PMS_P1;PMS_P2;Temp;Humidity;BMP_temperature;BMP_pressure;BME280_temperature;BME280_humidity;BME280_pressure;Samples;Min_cycle;Max_cycle;Signal;HPM_P1;HPM_P2
2022/06/07 00:00:15;;;;;;;15.65;6.75;;;24.00;68.40;;;;;;6225617;28;80706;-68
2022/06/07 00:03:15;;;;;;;14.52;7.43;;;23.90;68.80;;;;;;6210491;28;81835;-68
2022/06/07 00:06:16;;;;;;;11.80;7.20;;;23.90;68.70;;;;;;6227900;28;81746;-68
2022/06/07 00:09:16;;;;;;;18.58;6.60;;;23.90;68.80;;;;;;6221146;28;82435;-68
2022/06/07 00:12:17;;;;;;;14.40;7.45;;;24.00;69.60;;;;;;6206597;28;83117;-69
2022/06/07 00:15:17;;;;;;;12.07;6.43;;;24.00;68.70;;;;;;6231805;28;80490;-68
2022/06/07 00:18:18;;;;;;;8.90;5.93;;;24.00;69.10;;;;;;6235783;28;86670;-68
2022/06/07 00:21:18;;;;;;;13.73;7.63;;;24.00;68.80;;;;;;6231056;28;80320;-68
2022/06/07 00:24:19;;;;;;;14.80;7.40;;;24.00;68.80;;;;;;6231839;28;81887;-68
2022/06/07 00:27:19;;;;;;;12.48;6.45;;;24.00;68.80;;;;;;6231538;28;81407;-68
2022/06/07 00:30:20;;;;;;;10.32;6.25;;;23.90;68.60;;;;;;6206652;28;82116;-68
2022/06/07 00:33:20;;;;;;;15.93;7.43;;;24.00;68.50;;;;;;6213192;28;83338;-68
2022/06/07 00:36:21;;;;;;;10.90;6.65;;;24.00;68.80;;;;;;6204046;28;83000;-68
2022/06/07 00:39:21;;;;;;;13.07;7.35;;;24.00;69.20;;;;;;6190010;28;82978;-68
2022/06/07 00:42:22;;;;;;;12.10;6.70;;;24.00;68.70;;;;;;6225598;28;80396;-69
2022/06/07 00:45:22;;;;;;;11.07;7.05;;;23.90;69.90;;;;;;6229751;28;80331;-68
2022/06/07 00:48:23;;;;;;;10.68;7.25;;;23.90;69.20;;;;;;6231053;28;81783;-69
2022/06/07 00:51:23;;;;;;;12.48;6.70;;;23.90;69.50;;;;;;6196771;28;83851;-68
2022/06/07 00:54:24;;;;;;;14.82;7.93;;;24.00;69.40;;;;;;6193157;28;80375;-69
2022/06/07 00:57:27;;;;;;;11.80;7.32;;;23.90;69.00;;;;;;6210272;28;81489;-69
2022/06/07 01:00:27;;;;;;;16.65;8.05;;;23.90;69.50;;;;;;6203671;28;83153;-69
2022/06/07 01:03:30;;;;;;;15.00;7.28;;;23.70;70.20;;;;;;6185573;28;81375;-68
2022/06/07 01:13:18;;;;;;;13.85;8.10;;;23.20;73.00;;;;;;6210665;28;82664;-68
2022/06/07 01:16:19;;;;;;;17.10;8.63;;;23.00;74.20;;;;;;6205952;28;82062;-70
2022/06/07 01:19:20;;;;;;;15.90;8.55;;;23.10;74.30;;;;;;6201043;28;81277;-69
2022/06/07 01:22:21;;;;;;;16.92;8.88;;;23.10;74.00;;;;;;6217174;28;83616;-69
2022/06/07 01:25:22;;;;;;;18.27;9.50;;;23.00;74.40;;;;;;6216097;28;81979;-69
2022/06/07 01:28:23;;;;;;;14.05;8.88;;;23.10;74.30;;;;;;6207716;28;82171;-69
2022/06/07 01:31:23;;;;;;;19.30;9.25;;;23.10;74.90;;;;;;6229723;28;84244;-69
2022/06/07 01:34:24;;;;;;;18.58;9.75;;;23.10;74.20;;;;;;6205296;28;82979;-69
2022/06/07 01:37:25;;;;;;;20.25;10.85;;;23.10;74.20;;;;;;6204334;28;83242;-69
2022/06/07 01:43:44;;;;;;;16.08;10.00;;;22.80;76.20;;;;;;6199608;28;84281;-69
2022/06/07 01:46:45;;;;;;;16.30;10.05;;;22.70;76.90;;;;;;6208506;28;85755;-69
2022/06/07 01:49:46;;;;;;;18.77;9.93;;;22.80;76.90;;;;;;6207577;28;85625;-69
2022/06/07 01:52:46;;;;;;;15.57;9.05;;;22.70;76.80;;;;;;6205675;28;84317;-68
2022/06/07 01:55:59;;;;;;;15.85;9.35;;;22.70;77.20;;;;;;6200991;28;82884;-69
2022/06/07 01:59:00;;;;;;;17.13;9.23;;;22.80;76.40;;;;;;6212968;28;81130;-68
2022/06/07 02:02:00;;;;;;;20.48;9.68;;;22.90;76.10;;;;;;6200497;28;82934;-68
2022/06/07 02:05:01;;;;;;;14.07;8.75;;;22.90;75.70;;;;;;6230149;28;81457;-69
2022/06/07 02:08:04;;;;;;;14.25;8.32;;;22.60;78.00;;;;;;6205710;28;83174;-69
2022/06/07 02:11:08;;;;;;;13.27;8.55;;;22.50;78.30;;;;;;6214868;28;82591;-67
2022/06/07 02:14:09;;;;;;;12.35;7.75;;;22.60;77.50;;;;;;6203121;28;83394;-65
2022/06/07 02:17:10;;;;;;;13.57;7.88;;;22.70;76.90;;;;;;6219962;28;80426;-68
2022/06/07 02:20:22;;;;;;;11.90;7.95;;;22.60;76.80;;;;;;6211973;28;83588;-67
2022/06/07 02:23:22;;;;;;;11.82;7.32;;;22.70;76.30;;;;;;6216024;28;82224;-68
2022/06/07 02:26:23;;;;;;;16.08;7.70;;;22.80;76.10;;;;;;6215632;28;83653;-67
2022/06/07 02:29:25;;;;;;;10.90;6.97;;;22.90;75.50;;;;;;6215346;28;82194;-68
2022/06/07 02:32:26;;;;;;;11.55;7.35;;;22.90;74.40;;;;;;6205693;28;87421;-69
2022/06/07 02:35:26;;;;;;;12.73;8.13;;;23.00;74.00;;;;;;6231353;28;80686;-67
2022/06/07 02:38:27;;;;;;;10.75;6.28;;;23.00;74.00;;;;;;6233539;28;80703;-69
2022/06/07 02:41:27;;;;;;;11.35;7.03;;;23.00;73.70;;;;;;6215842;28;83065;-68
2022/06/07 02:44:28;;;;;;;10.23;6.43;;;23.10;72.90;;;;;;6211096;28;82095;-68
2022/06/07 02:47:30;;;;;;;11.77;6.88;;;23.10;73.00;;;;;;6210116;28;83637;-68
2022/06/07 02:50:36;;;;;;;15.00;6.57;;;23.10;72.60;;;;;;6210953;28;83384;-68
2022/06/07 02:53:37;;;;;;;13.68;6.60;;;23.00;72.70;;;;;;6230880;28;81360;-68
2022/06/07 02:56:38;;;;;;;12.70;6.78;;;23.10;72.90;;;;;;6204592;28;82454;-67
2022/06/07 02:59:39;;;;;;;9.60;6.50;;;23.20;72.10;;;;;;6207520;28;83453;-68
2022/06/07 03:02:40;;;;;;;9.68;6.60;;;23.20;72.40;;;;;;6198126;28;80782;-68
2022/06/07 03:05:41;;;;;;;12.55;6.28;;;23.30;71.80;;;;;;6184735;28;83559;-67
2022/06/07 03:08:42;;;;;;;9.88;5.90;;;23.40;71.90;;;;;;6219114;28;80394;-67
2022/06/07 03:11:42;;;;;;;9.55;5.82;;;23.40;70.50;;;;;;6196790;28;82053;-67
2022/06/07 03:14:44;;;;;;;10.00;5.82;;;23.50;71.00;;;;;;6197324;28;82385;-68
2022/06/07 03:17:45;;;;;;;8.55;5.43;;;23.50;70.10;;;;;;6214918;28;81097;-68
2022/06/07 03:20:47;;;;;;;10.60;5.32;;;23.50;70.30;;;;;;6183906;28;82604;-68
2022/06/07 03:23:48;;;;;;;11.00;6.20;;;23.40;70.30;;;;;;6196464;28;82399;-67
2022/06/07 03:26:49;;;;;;;11.55;6.38;;;23.40;70.00;;;;;;6216533;28;80352;-68
2022/06/07 03:29:51;;;;;;;10.40;5.80;;;23.40;70.30;;;;;;6201323;28;81502;-70
2022/06/07 03:32:56;;;;;;;11.70;5.32;;;23.50;70.40;;;;;;6213181;28;82403;-71
2022/06/07 03:36:00;;;;;;;7.63;5.10;;;23.60;70.40;;;;;;6199184;28;82551;-71
2022/06/07 03:39:01;;;;;;;8.52;5.03;;;23.60;69.60;;;;;;6231757;28;80157;-70
2022/06/07 03:42:06;;;;;;;10.82;5.25;;;23.60;69.40;;;;;;6200447;28;83404;-68
2022/06/07 03:45:08;;;;;;;9.30;4.93;;;23.70;69.80;;;;;;6194855;28;83549;-69
2022/06/07 03:48:10;;;;;;;10.00;5.43;;;23.70;69.00;;;;;;6203420;28;81602;-69
2022/06/07 03:51:11;;;;;;;11.60;5.03;;;23.80;69.40;;;;;;6201609;28;83749;-69
2022/06/07 03:54:13;;;;;;;11.75;5.30;;;23.80;68.70;;;;;;6204732;28;82656;-67
2022/06/07 03:57:16;;;;;;;8.98;5.20;;;23.90;68.60;;;;;;6206027;28;81412;-67
2022/06/07 04:00:21;;;;;;;5.95;4.22;;;23.90;69.30;;;;;;6210580;28;83447;-69
2022/06/07 04:03:26;;;;;;;6.75;4.28;;;23.90;68.20;;;;;;6210276;28;83178;-67
2022/06/07 04:06:27;;;;;;;6.82;4.30;;;24.00;68.50;;;;;;6195770;28;82792;-69
2022/06/07 04:09:32;;;;;;;10.43;5.03;;;24.00;68.30;;;;;;6184010;28;81697;-70
2022/06/07 04:12:33;;;;;;;7.55;5.10;;;24.00;69.20;;;;;;6202988;28;81874;-68
2022/06/07 04:15:33;;;;;;;9.57;5.32;;;24.10;68.10;;;;;;6195335;28;83661;-67
2022/06/07 04:18:36;;;;;;;8.50;4.05;;;24.10;68.60;;;;;;6202955;28;83151;-68
2022/06/07 04:21:37;;;;;;;6.95;4.35;;;24.10;68.50;;;;;;6224967;28;81515;-68
2022/06/07 04:24:47;;;;;;;6.55;3.90;;;24.10;69.00;;;;;;6221665;28;80292;-68
2022/06/07 04:27:51;;;;;;;7.38;4.35;;;24.20;68.40;;;;;;6201287;28;83406;-67
2022/06/07 04:30:54;;;;;;;7.63;4.50;;;24.20;69.10;;;;;;6204755;28;83338;-70
2022/06/07 04:34:00;;;;;;;;;;;24.20;68.70;;;;;;6207536;28;83116;-69
2022/06/07 04:37:02;;;;;;;9.45;4.30;;;24.30;68.80;;;;;;6217454;28;83268;-69
2022/06/07 04:40:02;;;;;;;7.55;4.43;;;24.30;68.90;;;;;;6206566;28;80699;-69
2022/06/07 04:43:04;;;;;;;6.78;4.03;;;24.30;69.50;;;;;;6218126;28;83040;-68
2022/06/07 04:46:07;;;;;;;7.07;4.30;;;24.30;69.50;;;;;;6203001;28;83050;-68
2022/06/07 04:49:07;;;;;;;10.82;4.07;;;24.30;69.70;;;;;;6210811;28;80416;-69
2022/06/07 04:52:08;;;;;;;6.78;4.18;;;24.30;70.00;;;;;;6218346;28;82221;-68
2022/06/07 04:55:13;;;;;;;9.43;4.47;;;24.30;69.90;;;;;;6212489;28;83379;-68
2022/06/07 04:58:15;;;;;;;6.93;4.53;;;24.40;69.90;;;;;;6204021;28;83296;-69
2022/06/07 05:01:19;;;;;;;10.20;4.22;;;24.40;69.70;;;;;;6210979;28;83525;-68
2022/06/07 05:04:20;;;;;;;7.72;4.10;;;24.50;69.20;;;;;;6205019;28;81946;-72
2022/06/07 05:07:21;;;;;;;9.93;4.35;;;24.50;68.90;;;;;;6221242;28;83240;-68
2022/06/07 05:10:43;;;;;;;9.65;4.55;;;24.60;68.60;;;;;;6211588;28;83564;-69
2022/06/07 05:13:44;;;;;;;5.63;4.30;;;24.50;68.40;;;;;;6216465;28;80606;-67
2022/06/07 05:16:45;;;;;;;5.85;3.92;;;24.50;67.60;;;;;;6209207;28;83321;-68
2022/06/07 05:19:51;;;;;;;8.50;5.20;;;24.50;66.90;;;;;;6219288;28;83037;-68
2022/06/07 05:22:51;;;;;;;7.55;4.88;;;24.20;67.20;;;;;;6217205;28;83322;-68
2022/06/07 05:25:54;;;;;;;8.18;4.95;;;24.10;67.20;;;;;;6209668;28;82682;-69
2022/06/07 05:28:55;;;;;;;7.97;5.00;;;24.00;67.70;;;;;;6207757;28;83101;-68
2022/06/07 05:31:57;;;;;;;7.57;4.63;;;24.10;68.10;;;;;;6208806;28;82382;-70
2022/06/07 05:34:57;;;;;;;6.30;4.43;;;24.20;68.00;;;;;;6206705;28;83187;-68
2022/06/07 05:37:58;;;;;;;8.73;5.13;;;24.30;67.10;;;;;;6206101;28;82274;-69
2022/06/07 05:41:02;;;;;;;8.80;4.53;;;24.30;66.60;;;;;;6227878;28;80311;-71
2022/06/07 05:44:02;;;;;;;7.50;3.97;;;24.30;66.90;;;;;;6197949;28;83317;-70
2022/06/07 05:47:09;;;;;;;5.72;3.78;;;24.30;67.50;;;;;;6215934;28;82998;-69
2022/06/07 05:50:19;;;;;;;6.63;3.75;;;24.30;66.60;;;;;;6221893;28;81850;-69
2022/06/07 05:53:25;;;;;;;;;;;24.30;67.10;;;;;;6215418;28;83506;-68
2022/06/07 05:56:26;;;;;;;6.65;3.70;;;24.10;67.20;;;;;;6220854;28;82897;-69
2022/06/07 05:59:28;;;;;;;6.78;4.05;;;23.90;67.80;;;;;;6208363;28;80128;-69
2022/06/07 06:02:29;;;;;;;5.50;4.40;;;23.90;68.40;;;;;;6217900;28;82610;-69
2022/06/07 06:05:30;;;;;;;7.30;4.43;;;24.00;67.80;;;;;;6218387;28;82761;-69
2022/06/07 06:11:54;;;;;;;8.50;3.97;;;24.10;67.10;;;;;;6204758;28;83128;-68
2022/06/07 06:15:13;;;;;;;6.63;3.58;;;24.20;67.30;;;;;;6214933;28;83088;-68
2022/06/07 06:18:14;;;;;;;4.93;3.83;;;24.20;66.30;;;;;;6227422;28;81214;-68
2022/06/07 06:21:16;;;;;;;7.18;4.10;;;24.00;67.20;;;;;;6211974;28;82577;-68
2022/06/07 06:24:18;;;;;;;5.95;3.60;;;24.00;67.20;;;;;;6204184;28;82351;-68
2022/06/07 06:27:19;;;;;;;3.78;3.22;;;23.80;66.40;;;;;;6200629;28;83187;-70
2022/06/07 06:30:23;;;;;;;8.07;3.15;;;23.70;66.60;;;;;;6207874;28;82540;-68
2022/06/07 06:33:56;;;;;;;6.55;3.40;;;23.90;66.70;;;;;;6209745;28;85462;-70
2022/06/07 06:37:01;;;;;;;5.57;3.65;;;24.10;66.10;;;;;;6204157;28;83237;-69
2022/06/07 06:40:06;;;;;;;4.60;3.17;;;24.00;65.60;;;;;;6211799;28;81347;-68
2022/06/07 06:43:13;;;;;;;4.55;3.30;;;24.10;65.90;;;;;;6225175;28;82073;-69
2022/06/07 06:46:26;;;;;;;4.70;3.20;;;24.10;65.00;;;;;;6205819;28;81712;-69
2022/06/07 06:49:28;;;;;;;5.25;3.22;;;24.20;65.50;;;;;;6192641;28;82602;-68
2022/06/07 06:52:29;;;;;;;4.63;3.00;;;24.20;63.30;;;;;;6191176;28;83944;-69
2022/06/07 06:55:30;;;;;;;6.03;2.85;;;24.00;63.50;;;;;;6199143;28;81736;-68
2022/06/07 06:58:30;;;;;;;6.45;2.92;;;24.00;62.50;;;;;;6203776;28;83310;-67
2022/06/07 07:01:31;;;;;;;3.50;2.95;;;24.10;62.50;;;;;;6204063;28;84185;-67
2022/06/07 07:04:34;;;;;;;5.32;3.38;;;24.10;62.80;;;;;;6209145;28;80584;-68
2022/06/07 07:07:38;;;;;;;3.67;3.05;;;24.00;63.30;;;;;;6212077;28;82928;-67
2022/06/07 07:10:40;;;;;;;5.38;3.47;;;24.00;63.40;;;;;;6212369;28;81792;-68
2022/06/07 07:13:40;;;;;;;4.18;3.55;;;24.10;64.00;;;;;;6208454;28;83129;-68
2022/06/07 07:16:41;;;;;;;7.85;3.60;;;24.10;63.30;;;;;;6226054;28;81453;-68
2022/06/07 07:19:43;;;;;;;4.40;3.15;;;24.20;63.20;;;;;;6201773;28;83833;-67
2022/06/07 07:22:46;;;;;;;5.00;3.25;;;24.20;62.80;;;;;;6225523;28;81370;-67
2022/06/07 07:25:47;;;;;;;5.82;3.35;;;24.20;63.40;;;;;;6210138;28;83413;-67
2022/06/07 07:28:49;;;;;;;3.58;2.63;;;24.20;63.00;;;;;;6211331;28;82881;-68
2022/06/07 07:31:51;;;;;;;4.43;3.22;;;24.30;63.40;;;;;;6188885;28;83411;-65
2022/06/07 07:34:55;;;;;;;5.90;2.95;;;24.40;62.60;;;;;;6202655;28;80884;-66
2022/06/07 07:37:59;;;;;;;4.65;3.08;;;24.40;62.70;;;;;;6189010;28;81626;-66
2022/06/07 07:41:00;;;;;;;4.38;3.30;;;24.60;62.50;;;;;;6177627;28;81413;-67
2022/06/07 07:44:01;;;;;;;3.90;3.17;;;24.60;61.40;;;;;;6172357;28;82791;-67
2022/06/07 07:47:01;;;;;;;4.75;3.00;;;24.60;61.30;;;;;;6166359;28;83046;-67
2022/06/07 07:50:08;;;;;;;6.00;3.38;;;24.70;61.40;;;;;;6182801;28;83042;-67
2022/06/07 07:53:10;;;;;;;4.97;2.88;;;24.80;61.70;;;;;;6173491;28;82264;-67
2022/06/07 07:56:11;;;;;;;3.45;3.00;;;24.70;60.10;;;;;;6193854;28;80091;-67
2022/06/07 07:59:15;;;;;;;4.00;2.90;;;24.70;59.70;;;;;;6176880;28;82018;-67
2022/06/07 08:02:15;;;;;;;4.32;2.38;;;24.70;59.70;;;;;;6185202;28;82702;-67
2022/06/07 08:05:16;;;;;;;5.55;2.42;;;24.60;58.90;;;;;;6183167;28;82548;-67
2022/06/07 08:08:17;;;;;;;3.63;2.88;;;24.60;59.30;;;;;;6179514;28;81383;-68
2022/06/07 08:11:18;;;;;;;3.45;3.05;;;24.70;59.00;;;;;;6207608;28;82430;-68
2022/06/07 08:14:19;;;;;;;4.50;2.95;;;24.70;58.80;;;;;;6203635;28;80781;-69
2022/06/07 08:17:20;;;;;;;2.88;2.60;;;24.80;58.70;;;;;;6196929;28;81627;-69
2022/06/07 08:20:20;;;;;;;3.55;2.78;;;24.90;59.70;;;;;;6207153;28;81754;-69
2022/06/07 08:23:21;;;;;;;5.40;3.35;;;24.90;59.10;;;;;;6223080;28;82294;-68
2022/06/07 08:26:21;;;;;;;4.22;3.13;;;24.90;58.90;;;;;;6221623;28;81692;-69
2022/06/07 08:29:22;;;;;;;7.18;3.30;;;25.00;59.00;;;;;;6235421;28;80267;-69
2022/06/07 08:32:23;;;;;;;5.28;2.75;;;25.10;58.60;;;;;;6227996;28;80673;-69
2022/06/07 08:38:42;;;;;;;2.80;2.47;;;25.00;58.70;;;;;;6226869;28;81531;-68
2022/06/07 08:41:43;;;;;;;5.10;2.70;;;25.10;58.50;;;;;;6230170;28;80677;-68
2022/06/07 08:44:43;;;;;;;2.40;2.20;;;25.10;58.40;;;;;;6228242;28;80442;-68
2022/06/07 08:47:44;;;;;;;3.60;2.80;;;25.20;58.50;;;;;;6222566;28;81451;-69
2022/06/07 08:50:44;;;;;;;3.78;2.55;;;25.20;58.70;;;;;;6206108;28;80498;-67
2022/06/07 08:53:45;;;;;;;8.68;2.92;;;25.20;58.70;;;;;;6222616;28;80847;-68
2022/06/07 08:56:47;;;;;;;3.88;2.78;;;25.20;58.50;;;;;;6229453;28;80781;-68
2022/06/07 08:59:48;;;;;;;3.20;2.78;;;25.20;58.20;;;;;;6221959;28;82138;-67
2022/06/07 09:02:52;;;;;;;3.45;2.85;;;25.30;58.30;;;;;;6206317;28;81571;-68
2022/06/07 09:05:53;;;;;;;6.22;2.92;;;25.30;58.50;;;;;;6222091;28;80597;-68
2022/06/07 09:08:53;;;;;;;5.13;3.50;;;25.30;58.90;;;;;;6212902;28;80506;-67
2022/06/07 09:12:09;;;;;;;3.75;3.08;;;25.30;58.50;;;;;;6231244;28;80449;-68
2022/06/07 09:15:10;;;;;;;5.07;2.75;;;25.20;59.10;;;;;;6218229;28;80450;-67
2022/06/07 09:18:11;;;;;;;5.38;3.28;;;25.30;59.10;;;;;;6222056;28;82276;-67
2022/06/07 09:21:11;;;;;;;5.75;3.05;;;25.20;57.50;;;;;;6231434;28;80490;-67
2022/06/07 09:24:12;;;;;;;4.97;3.17;;;25.20;57.90;;;;;;6223083;28;80251;-67
2022/06/07 09:27:13;;;;;;;4.30;2.90;;;25.20;57.80;;;;;;6213365;28;80370;-68
2022/06/07 09:30:13;;;;;;;4.65;2.30;;;25.20;57.90;;;;;;6206545;28;82070;-68
2022/06/07 09:33:13;;;;;;;4.85;2.60;;;25.20;57.30;;;;;;6177322;28;80392;-69
2022/06/07 09:36:14;;;;;;;3.67;3.00;;;25.30;57.90;;;;;;6207273;28;80408;-68
2022/06/07 09:39:15;;;;;;;4.15;3.03;;;25.40;57.70;;;;;;6207748;28;80600;-68
2022/06/07 09:42:15;;;;;;;13.77;3.35;;;25.50;56.70;;;;;;6202312;28;80932;-69
2022/06/07 09:45:16;;;;;;;4.63;2.72;;;25.50;56.90;;;;;;6199587;28;80471;-69
2022/06/07 09:48:17;;;;;;;11.60;3.00;;;25.50;56.70;;;;;;6186505;28;83405;-70
2022/06/07 09:51:18;;;;;;;5.03;2.92;;;25.50;57.50;;;;;;6199260;28;80380;-69
2022/06/07 09:54:19;;;;;;;5.95;2.92;;;25.50;57.20;;;;;;6196258;28;80416;-68
2022/06/07 09:57:21;;;;;;;9.15;2.92;;;25.50;57.00;;;;;;6201092;28;80377;-71
2022/06/07 10:00:22;;;;;;;8.07;3.00;;;25.50;57.30;;;;;;6200615;28;80960;-70
2022/06/07 10:03:22;;;;;;;10.85;2.58;;;25.60;57.40;;;;;;6183191;28;80996;-70
2022/06/07 10:06:26;;;;;;;7.30;3.45;;;25.60;57.60;;;;;;6203246;28;81412;-69
2022/06/07 10:09:27;;;;;;;7.38;4.40;;;25.70;57.40;;;;;;6201720;28;80945;-70
2022/06/07 10:12:27;;;;;;;5.03;3.10;;;25.90;57.20;;;;;;6199894;28;80651;-67
2022/06/07 10:15:29;;;;;;;4.57;2.65;;;25.90;56.10;;;;;;6197425;28;80451;-69
2022/06/07 10:18:29;;;;;;;6.10;3.55;;;26.00;56.80;;;;;;6197680;28;84664;-68
2022/06/07 10:21:30;;;;;;;10.32;3.15;;;26.00;57.10;;;;;;6196898;28;80257;-68
2022/06/07 10:24:31;;;;;;;3.80;2.95;;;26.00;56.60;;;;;;6204295;28;80594;-68
2022/06/07 10:27:31;;;;;;;3.97;3.00;;;26.00;57.70;;;;;;6202151;28;81432;-68
2022/06/07 10:30:33;;;;;;;5.22;3.10;;;25.90;57.20;;;;;;6195797;28;80739;-68
2022/06/07 10:33:33;;;;;;;7.63;3.08;;;25.90;56.80;;;;;;6202763;28;81495;-70
2022/06/07 10:36:34;;;;;;;5.22;3.30;;;25.90;57.10;;;;;;6207188;28;81373;-69
2022/06/07 10:39:35;;;;;;;7.20;3.75;;;25.90;56.90;;;;;;6192369;28;80765;-70
2022/06/07 10:42:35;;;;;;;4.57;3.25;;;25.90;56.90;;;;;;6195916;28;82225;-69
2022/06/07 10:45:37;;;;;;;5.28;3.35;;;26.10;54.80;;;;;;6193789;28;80591;-69
2022/06/07 10:48:38;;;;;;;6.10;3.70;;;26.10;55.30;;;;;;6195726;28;81667;-69
2022/06/07 10:54:57;;;;;;;4.43;2.63;;;26.20;55.20;;;;;;6189574;28;80465;-68
2022/06/07 10:57:58;;;;;;;5.55;3.10;;;26.20;56.10;;;;;;6199231;28;81936;-67
2022/06/07 11:00:59;;;;;;;10.15;3.08;;;26.10;57.20;;;;;;6199235;28;80460;-67
2022/06/07 11:03:59;;;;;;;10.20;3.20;;;26.10;55.90;;;;;;6195529;28;80589;-68
2022/06/07 11:10:19;;;;;;;3.33;2.75;;;26.00;55.50;;;;;;6199055;28;81577;-69
2022/06/07 11:13:19;;;;;;;4.28;2.58;;;26.10;55.70;;;;;;6207985;28;80596;-68
2022/06/07 11:16:20;;;;;;;4.15;3.20;;;26.10;55.70;;;;;;6190140;28;81705;-67
2022/06/07 11:19:20;;;;;;;3.85;2.58;;;26.00;55.00;;;;;;6204460;28;81291;-69
2022/06/07 11:22:21;;;;;;;10.88;3.38;;;25.90;54.90;;;;;;6197913;28;81197;-68
2022/06/07 11:25:21;;;;;;;6.93;2.72;;;25.90;54.50;;;;;;6182097;28;80705;-68
2022/06/07 11:28:22;;;;;;;5.78;2.65;;;25.90;54.60;;;;;;6191169;28;82029;-68
2022/06/07 11:31:22;;;;;;;5.05;3.00;;;25.90;54.10;;;;;;6199018;28;80342;-69
2022/06/07 11:34:23;;;;;;;4.40;2.67;;;25.90;54.20;;;;;;6196027;28;81013;-68
2022/06/07 11:37:23;;;;;;;5.53;3.08;;;25.90;55.10;;;;;;6197652;28;81486;-68
2022/06/07 11:40:24;;;;;;;4.05;3.15;;;25.90;55.40;;;;;;6201324;28;82056;-67
2022/06/07 11:43:24;;;;;;;10.48;2.42;;;25.90;54.70;;;;;;6195340;28;81664;-68
2022/06/07 11:46:25;;;;;;;2.40;2.20;;;25.90;53.80;;;;;;6197452;28;81324;-69
2022/06/07 11:49:27;;;;;;;8.27;2.45;;;25.90;54.00;;;;;;6198935;28;81774;-69
2022/06/07 11:52:28;;;;;;;10.52;2.70;;;26.00;53.10;;;;;;6196784;28;80912;-68
2022/06/07 11:55:28;;;;;;;3.78;2.95;;;26.10;53.20;;;;;;6197543;28;81978;-67
2022/06/07 11:58:29;;;;;;;3.83;3.05;;;26.20;53.20;;;;;;6197516;28;80343;-67
2022/06/07 12:01:29;;;;;;;3.53;2.83;;;26.30;52.50;;;;;;6192682;28;80786;-68
2022/06/07 12:04:29;;;;;;;4.30;2.50;;;26.40;52.90;;;;;;6208694;28;80327;-67
2022/06/07 12:07:30;;;;;;;3.33;2.70;;;26.50;53.30;;;;;;6181301;28;81563;-67
2022/06/07 12:10:31;;;;;;;3.45;2.72;;;26.50;52.30;;;;;;6193616;28;80508;-67
2022/06/07 12:13:49;;;;;;;3.42;2.53;;;26.50;53.60;;;;;;6199534;28;80971;-66
2022/06/07 12:16:50;;;;;;;9.98;2.85;;;26.50;53.00;;;;;;6190814;28;81572;-67
2022/06/07 12:19:50;;;;;;;3.25;2.90;;;26.50;53.40;;;;;;6195663;28;80848;-67
2022/06/07 12:22:51;;;;;;;4.55;2.63;;;26.50;53.90;;;;;;6194080;28;80517;-67
2022/06/07 12:25:51;;;;;;;4.63;2.53;;;26.50;52.90;;;;;;6176605;28;83615;-67
2022/06/07 12:28:52;;;;;;;4.97;3.10;;;26.40;52.80;;;;;;6198598;28;80557;-66
2022/06/07 12:31:52;;;;;;;4.63;3.28;;;26.40;52.10;;;;;;6189092;28;81932;-66
2022/06/07 12:34:53;;;;;;;3.63;2.45;;;26.30;51.80;;;;;;6200912;28;80328;-66
2022/06/07 12:37:54;;;;;;;7.00;2.50;;;26.30;52.10;;;;;;6194001;28;81022;-66
2022/06/07 12:40:54;;;;;;;4.00;2.58;;;26.30;52.20;;;;;;6186362;28;80320;-66
2022/06/07 12:43:55;;;;;;;3.10;2.63;;;26.30;52.00;;;;;;6191983;28;80390;-66
2022/06/07 12:46:55;;;;;;;4.43;2.90;;;26.30;53.10;;;;;;6200103;28;81287;-65
2022/06/07 12:49:56;;;;;;;3.38;2.20;;;26.20;53.30;;;;;;6187872;28;82025;-66
2022/06/07 12:52:56;;;;;;;6.05;2.58;;;26.30;53.60;;;;;;6177010;28;81557;-65
2022/06/07 12:55:57;;;;;;;4.75;2.85;;;26.50;53.10;;;;;;6189239;28;81426;-67
2022/06/07 12:58:57;;;;;;;5.63;2.88;;;26.50;52.60;;;;;;6189463;28;81961;-68
2022/06/07 13:01:58;;;;;;;5.57;3.05;;;26.60;51.80;;;;;;6187877;28;81730;-66
2022/06/07 13:04:58;;;;;;;6.60;3.08;;;26.80;51.40;;;;;;6198208;28;81631;-66
2022/06/07 13:08:00;;;;;;;14.93;3.30;;;26.80;50.90;;;;;;6191453;28;81801;-66
2022/06/07 13:11:00;;;;;;;12.88;3.95;;;26.80;51.70;;;;;;6200154;28;80517;-67
2022/06/07 13:14:01;;;;;;;10.75;3.70;;;26.80;52.60;;;;;;6193134;28;80472;-68
2022/06/07 13:17:03;;;;;;;10.32;3.53;;;26.80;53.70;;;;;;6192807;28;81000;-69
2022/06/07 13:20:04;;;;;;;9.13;3.40;;;26.70;53.10;;;;;;6206454;28;81736;-68
2022/06/07 13:23:05;;;;;;;16.23;4.18;;;26.70;53.90;;;;;;6209757;28;82962;-67
2022/06/07 13:26:05;;;;;;;7.72;4.00;;;26.70;54.80;;;;;;6203759;28;80378;-67
2022/06/07 13:29:07;;;;;;;14.77;3.60;;;26.70;54.30;;;;;;6183416;28;81749;-66
2022/06/07 13:32:07;;;;;;;11.32;3.42;;;26.70;55.20;;;;;;6179619;28;82000;-68
2022/06/07 13:35:08;;;;;;;10.70;3.80;;;26.80;54.10;;;;;;6194840;28;80448;-68
2022/06/07 13:38:09;;;;;;;6.53;3.55;;;26.80;53.80;;;;;;6190652;28;80431;-68
2022/06/07 13:41:09;;;;;;;6.00;3.50;;;26.80;53.90;;;;;;6198948;28;81601;-68
2022/06/07 13:44:10;;;;;;;9.88;3.30;;;26.80;53.60;;;;;;6210330;28;80334;-68
2022/06/07 13:47:10;;;;;;;8.38;3.40;;;26.80;54.40;;;;;;6202907;28;80585;-68
2022/06/07 13:53:30;;;;;;;8.75;4.03;;;26.80;53.30;;;;;;6199844;28;80470;-68
2022/06/07 13:56:31;;;;;;;9.82;3.65;;;26.70;52.10;;;;;;6178355;28;81680;-68
2022/06/07 13:59:31;;;;;;;6.40;3.85;;;26.80;51.30;;;;;;6206975;28;80252;-68
2022/06/07 14:02:32;;;;;;;4.30;3.67;;;26.80;51.50;;;;;;6200005;28;80303;-68
2022/06/07 14:05:34;;;;;;;6.68;3.55;;;26.70;51.40;;;;;;6210445;28;81482;-68
2022/06/07 14:08:34;;;;;;;8.70;4.47;;;26.70;51.50;;;;;;6194907;28;80780;-68
2022/06/07 14:11:35;;;;;;;13.32;4.40;;;26.60;51.80;;;;;;6199667;28;80506;-68
2022/06/07 14:14:35;;;;;;;22.75;4.80;;;26.60;52.20;;;;;;6209723;28;80228;-69
2022/06/07 14:17:36;;;;;;;8.60;4.68;;;26.60;52.10;;;;;;6173335;28;80692;-68
2022/06/07 14:20:37;;;;;;;5.47;4.20;;;26.50;54.30;;;;;;6210021;28;80481;-68
2022/06/07 14:23:37;;;;;;;5.70;4.07;;;26.40;54.80;;;;;;6208160;28;83364;-68
2022/06/07 14:26:38;;;;;;;9.80;4.60;;;26.10;55.90;;;;;;6203005;28;80819;-68
2022/06/07 14:29:38;;;;;;;7.80;4.00;;;26.10;56.10;;;;;;6200516;28;80963;-68
2022/06/07 14:32:39;;;;;;;10.98;4.45;;;26.00;56.50;;;;;;6207328;28;80448;-69
2022/06/07 14:35:40;;;;;;;9.13;4.70;;;26.00;56.60;;;;;;6204639;28;80397;-68
2022/06/07 14:38:40;;;;;;;8.73;4.43;;;25.80;56.80;;;;;;6204430;28;80504;-68
2022/06/07 14:41:40;;;;;;;13.15;5.60;;;25.70;56.80;;;;;;6187927;28;80822;-68
2022/06/07 14:44:41;;;;;;;15.70;4.72;;;25.70;56.50;;;;;;6168009;28;80461;-68
2022/06/07 14:47:42;;;;;;;8.30;3.92;;;25.70;55.00;;;;;;6205604;28;81524;-68
2022/06/07 14:50:43;;;;;;;11.18;4.07;;;25.70;54.60;;;;;;6209404;28;80484;-68
2022/06/07 14:53:43;;;;;;;6.30;4.30;;;25.60;54.30;;;;;;6209142;28;81324;-68
2022/06/07 14:56:44;;;;;;;8.63;4.78;;;25.50;54.50;;;;;;6203929;28;80403;-68
2022/06/07 14:59:45;;;;;;;6.03;4.43;;;25.40;55.40;;;;;;6209875;28;81715;-68
2022/06/07 15:02:46;;;;;;;10.07;4.15;;;25.40;56.20;;;;;;6203248;28;80631;-68
2022/06/07 15:05:46;;;;;;;8.50;4.72;;;25.50;57.10;;;;;;6209036;28;81236;-68
2022/06/07 15:08:49;;;;;;;17.15;5.05;;;25.40;57.80;;;;;;6191440;28;80464;-68
2022/06/07 15:11:50;;;;;;;6.72;5.05;;;25.50;58.60;;;;;;6208436;28;80411;-68
2022/06/07 15:14:50;;;;;;;7.47;4.90;;;25.50;59.30;;;;;;6201122;28;80574;-68
2022/06/07 15:17:53;;;;;;;5.35;4.60;;;25.50;60.20;;;;;;6191549;28;83449;-68
2022/06/07 15:20:54;;;;;;;7.43;5.25;;;25.40;60.60;;;;;;6190977;28;80857;-68
2022/06/07 15:23:54;;;;;;;7.00;4.95;;;25.50;60.40;;;;;;6199051;28;80508;-68
2022/06/07 15:26:55;;;;;;;10.63;5.10;;;25.50;60.70;;;;;;6201616;28;81280;-68
2022/06/07 15:29:55;;;;;;;7.63;5.25;;;25.40;61.40;;;;;;6190677;28;82079;-69
2022/06/07 15:32:56;;;;;;;6.93;5.15;;;25.40;61.30;;;;;;6202108;28;80435;-69
2022/06/07 15:35:56;;;;;;;8.20;4.38;;;25.60;61.80;;;;;;6188588;28;81452;-68
2022/06/07 15:38:57;;;;;;;9.80;5.28;;;25.70;61.20;;;;;;6194861;28;81502;-68
2022/06/07 15:45:17;;;;;;;7.50;5.18;;;25.80;61.20;;;;;;6209213;28;80518;-68
2022/06/07 15:48:17;;;;;;;9.25;5.00;;;25.80;60.60;;;;;;6199355;28;80531;-68
2022/06/07 15:51:18;;;;;;;51.60;37.78;;;25.90;60.90;;;;;;6178274;28;82570;-69
2022/06/07 15:54:18;;;;;;;97.90;67.90;;;25.90;60.90;;;;;;6204558;28;83027;-69
2022/06/07 15:59:02;;;;;;;100.30;68.28;;;25.90;61.20;;;;;;6197203;28;83543;-69
2022/06/07 16:00:39;;;;;;;91.13;63.00;;;25.90;61.20;;;;;;6188881;28;87652;-69
2022/06/07 16:03:40;;;;;;;86.50;63.00;;;25.90;61.40;;;;;;6170770;28;84967;-69
2022/06/07 16:06:40;;;;;;;77.60;54.35;;;25.90;61.70;;;;;;6184438;28;83967;-70
2022/06/07 16:09:41;;;;;;;72.28;52.72;;;26.00;61.60;;;;;;6197448;28;83275;-70